sensor_id;sensor_type;location;lat;lon;timestamp;temperature;humidity
52849;DHT22;38714;53.180;5.812;2023-10-09T00:00:16;14.80;99.90
52849;DHT22;38714;53.180;5.812;2023-10-09T00:03:01;14.80;99.90
52849;DHT22;38714;53.180;5.812;2023-10-09T00:05:30;14.80;99.90
52849;DHT22;38714;53.180;5.812;2023-10-09T00:08:15;14.80;99.90
52849;DHT22;38714;53.180;5.812;2023-10-09T00:10:51;14.80;99.90
52849;DHT22;38714;53.180;5.812;2023-10-09T00:13:26;14.80;99.90
52849;DHT22;38714;53.180;5.812;2023-10-09T00:15:57;14.80;99.90
52849;DHT22;38714;53.180;5.812;2023-10-09T00:18:27;14.80;99.90
52849;DHT22;38714;53.180;5.812;2023-10-09T00:20:56;14.80;99.90
52849;DHT22;38714;53.180;5.812;2023-10-09T00:23:27;14.80;99.90
52849;DHT22;38714;53.180;5.812;2023-10-09T00:25:53;14.80;99.90
52849;DHT22;38714;53.180;5.812;2023-10-09T00:28:37;14.80;99.90
52849;DHT22;38714;53.180;5.812;2023-10-09T00:31:16;14.80;99.90
52849;DHT22;38714;53.180;5.812;2023-10-09T00:33:45;14.80;99.90
52849;DHT22;38714;53.180;5.812;2023-10-09T00:36:10;14.80;99.90
52849;DHT22;38714;53.180;5.812;2023-10-09T00:38:37;14.80;99.90
52849;DHT22;38714;53.180;5.812;2023-10-09T00:41:10;14.80;99.90
52849;DHT22;38714;53.180;5.812;2023-10-09T00:43:37;14.80;99.90
52849;DHT22;38714;53.180;5.812;2023-10-09T00:46:05;14.80;99.90
52849;DHT22;38714;53.180;5.812;2023-10-09T00:48:56;14.80;99.90
52849;DHT22;38714;53.180;5.812;2023-10-09T00:51:23;14.80;99.90
52849;DHT22;38714;53.180;5.812;2023-10-09T00:53:52;14.80;99.90
52849;DHT22;38714;53.180;5.812;2023-10-09T00:56:20;14.80;99.90
52849;DHT22;38714;53.180;5.812;2023-10-09T00:59:00;14.80;99.90
52849;DHT22;38714;53.180;5.812;2023-10-09T01:01:34;14.80;99.90
52849;DHT22;38714;53.180;5.812;2023-10-09T01:04:03;14.80;99.90
52849;DHT22;38714;53.180;5.812;2023-10-09T01:06:44;14.80;99.90
52849;DHT22;38714;53.180;5.812;2023-10-09T01:09:14;14.80;99.90
52849;DHT22;38714;53.180;5.812;2023-10-09T01:11:43;14.80;99.90
52849;DHT22;38714;53.180;5.812;2023-10-09T01:14:30;14.80;99.90
52849;DHT22;38714;53.180;5.812;2023-10-09T01:16:57;14.80;99.90
52849;DHT22;38714;53.180;5.812;2023-10-09T01:19:23;14.80;99.90
52849;DHT22;38714;53.180;5.812;2023-10-09T01:21:56;14.80;99.90
52849;DHT22;38714;53.180;5.812;2023-10-09T01:24:41;14.80;99.90
52849;DHT22;38714;53.180;5.812;2023-10-09T01:27:07;14.80;99.90
52849;DHT22;38714;53.180;5.812;2023-10-09T01:29:42;14.80;99.90
52849;DHT22;38714;53.180;5.812;2023-10-09T01:32:09;14.80;99.90
52849;DHT22;38714;53.180;5.812;2023-10-09T01:34:45;14.80;99.90
52849;DHT22;38714;53.180;5.812;2023-10-09T01:37:15;14.80;99.90
52849;DHT22;38714;53.180;5.812;2023-10-09T01:39:48;14.90;99.90
52849;DHT22;38714;53.180;5.812;2023-10-09T01:42:14;14.80;99.90
52849;DHT22;38714;53.180;5.812;2023-10-09T01:44:55;14.90;99.90
52849;DHT22;38714;53.180;5.812;2023-10-09T01:47:24;14.90;99.90
52849;DHT22;38714;53.180;5.812;2023-10-09T01:49:51;14.90;99.90
52849;DHT22;38714;53.180;5.812;2023-10-09T01:52:19;14.90;99.90
52849;DHT22;38714;53.180;5.812;2023-10-09T01:54:47;14.90;99.90
52849;DHT22;38714;53.180;5.812;2023-10-09T01:57:14;14.80;99.90
52849;DHT22;38714;53.180;5.812;2023-10-09T01:59:42;14.90;99.90
52849;DHT22;38714;53.180;5.812;2023-10-09T02:02:15;14.90;99.90
52849;DHT22;38714;53.180;5.812;2023-10-09T02:05:01;14.90;99.90
52849;DHT22;38714;53.180;5.812;2023-10-09T02:07:50;14.90;99.90
52849;DHT22;38714;53.180;5.812;2023-10-09T02:10:20;14.90;99.90
52849;DHT22;38714;53.180;5.812;2023-10-09T02:12:48;14.90;99.90
52849;DHT22;38714;53.180;5.812;2023-10-09T02:15:19;14.80;99.90
52849;DHT22;38714;53.180;5.812;2023-10-09T02:18:05;14.90;99.90
52849;DHT22;38714;53.180;5.812;2023-10-09T02:20:43;14.90;99.90
52849;DHT22;38714;53.180;5.812;2023-10-09T02:23:13;14.90;99.90
52849;DHT22;38714;53.180;5.812;2023-10-09T02:25:42;14.90;99.90
52849;DHT22;38714;53.180;5.812;2023-10-09T02:28:09;14.90;99.90
52849;DHT22;38714;53.180;5.812;2023-10-09T02:30:46;14.90;99.90
52849;DHT22;38714;53.180;5.812;2023-10-09T02:33:16;14.90;99.90
52849;DHT22;38714;53.180;5.812;2023-10-09T02:35:53;14.90;99.90
52849;DHT22;38714;53.180;5.812;2023-10-09T02:38:20;14.80;99.90
52849;DHT22;38714;53.180;5.812;2023-10-09T02:40:52;14.90;99.90
52849;DHT22;38714;53.180;5.812;2023-10-09T02:43:34;14.90;99.90
52849;DHT22;38714;53.180;5.812;2023-10-09T02:46:13;14.90;99.90
52849;DHT22;38714;53.180;5.812;2023-10-09T02:48:49;14.80;99.90
52849;DHT22;38714;53.180;5.812;2023-10-09T02:51:22;14.90;99.90
52849;DHT22;38714;53.180;5.812;2023-10-09T02:54:02;14.90;99.90
52849;DHT22;38714;53.180;5.812;2023-10-09T02:56:53;14.90;99.90
52849;DHT22;38714;53.180;5.812;2023-10-09T02:59:30;14.90;99.90
52849;DHT22;38714;53.180;5.812;2023-10-09T03:01:56;14.90;99.90
52849;DHT22;38714;53.180;5.812;2023-10-09T03:04:23;14.90;99.90
52849;DHT22;38714;53.180;5.812;2023-10-09T03:06:49;14.90;99.90
52849;DHT22;38714;53.180;5.812;2023-10-09T03:09:23;14.90;99.90
52849;DHT22;38714;53.180;5.812;2023-10-09T03:11:53;14.90;99.90
52849;DHT22;38714;53.180;5.812;2023-10-09T03:14:20;14.90;99.90
52849;DHT22;38714;53.180;5.812;2023-10-09T03:16:47;14.90;99.90
52849;DHT22;38714;53.180;5.812;2023-10-09T03:19:16;14.90;99.90
52849;DHT22;38714;53.180;5.812;2023-10-09T03:21:42;15.00;99.90
52849;DHT22;38714;53.180;5.812;2023-10-09T03:24:08;15.00;99.90
52849;DHT22;38714;53.180;5.812;2023-10-09T03:26:34;15.00;99.90
52849;DHT22;38714;53.180;5.812;2023-10-09T03:29:00;15.00;99.90
52849;DHT22;38714;53.180;5.812;2023-10-09T03:31:36;15.00;99.90
52849;DHT22;38714;53.180;5.812;2023-10-09T03:34:02;15.00;99.90
52849;DHT22;38714;53.180;5.812;2023-10-09T03:36:28;15.00;99.90
52849;DHT22;38714;53.180;5.812;2023-10-09T03:39:03;15.00;99.90
52849;DHT22;38714;53.180;5.812;2023-10-09T03:41:33;15.10;99.90
52849;DHT22;38714;53.180;5.812;2023-10-09T03:44:05;15.10;99.90
52849;DHT22;38714;53.180;5.812;2023-10-09T03:46:32;15.10;99.90
52849;DHT22;38714;53.180;5.812;2023-10-09T03:48:59;15.20;99.90
52849;DHT22;38714;53.180;5.812;2023-10-09T03:51:32;15.20;99.90
52849;DHT22;38714;53.180;5.812;2023-10-09T03:53:58;15.20;99.90
52849;DHT22;38714;53.180;5.812;2023-10-09T03:56:24;15.20;99.90
52849;DHT22;38714;53.180;5.812;2023-10-09T03:58:51;15.30;99.90
52849;DHT22;38714;53.180;5.812;2023-10-09T04:01:21;15.30;99.90
52849;DHT22;38714;53.180;5.812;2023-10-09T04:04:04;15.30;99.90
52849;DHT22;38714;53.180;5.812;2023-10-09T04:06:32;15.30;99.90
52849;DHT22;38714;53.180;5.812;2023-10-09T04:09:04;15.30;99.90
52849;DHT22;38714;53.180;5.812;2023-10-09T04:11:52;15.40;99.90
52849;DHT22;38714;53.180;5.812;2023-10-09T04:14:40;15.40;99.90
52849;DHT22;38714;53.180;5.812;2023-10-09T04:17:15;15.40;99.90
52849;DHT22;38714;53.180;5.812;2023-10-09T04:19:50;15.40;99.90
52849;DHT22;38714;53.180;5.812;2023-10-09T04:22:38;15.40;99.90
52849;DHT22;38714;53.180;5.812;2023-10-09T04:25:22;15.50;99.90
52849;DHT22;38714;53.180;5.812;2023-10-09T04:28:00;15.50;99.90
52849;DHT22;38714;53.180;5.812;2023-10-09T04:30:38;15.50;99.90
52849;DHT22;38714;53.180;5.812;2023-10-09T04:33:15;15.50;99.90
52849;DHT22;38714;53.180;5.812;2023-10-09T04:36:08;15.50;99.90
52849;DHT22;38714;53.180;5.812;2023-10-09T04:38:46;15.50;99.90
52849;DHT22;38714;53.180;5.812;2023-10-09T04:41:31;15.50;99.90
52849;DHT22;38714;53.180;5.812;2023-10-09T04:44:11;15.50;99.90
52849;DHT22;38714;53.180;5.812;2023-10-09T04:46:57;15.50;99.90
52849;DHT22;38714;53.180;5.812;2023-10-09T04:49:37;15.50;99.90
52849;DHT22;38714;53.180;5.812;2023-10-09T04:52:27;15.60;99.90
52849;DHT22;38714;53.180;5.812;2023-10-09T04:54:56;15.50;99.90
52849;DHT22;38714;53.180;5.812;2023-10-09T04:57:42;15.60;99.90
52849;DHT22;38714;53.180;5.812;2023-10-09T05:00:16;15.60;99.90
52849;DHT22;38714;53.180;5.812;2023-10-09T05:02:56;15.60;99.90
52849;DHT22;38714;53.180;5.812;2023-10-09T05:08:16;15.60;99.90
52849;DHT22;38714;53.180;5.812;2023-10-09T05:13:41;15.60;99.90
52849;DHT22;38714;53.180;5.812;2023-10-09T05:16:17;15.60;99.90
52849;DHT22;38714;53.180;5.812;2023-10-09T05:18:57;15.60;99.90
52849;DHT22;38714;53.180;5.812;2023-10-09T05:21:33;15.60;99.90
52849;DHT22;38714;53.180;5.812;2023-10-09T05:24:10;15.60;99.90
52849;DHT22;38714;53.180;5.812;2023-10-09T05:26:40;15.70;99.90
52849;DHT22;38714;53.180;5.812;2023-10-09T05:29:17;15.60;99.90
52849;DHT22;38714;53.180;5.812;2023-10-09T05:31:58;15.60;99.90
52849;DHT22;38714;53.180;5.812;2023-10-09T05:34:34;15.70;99.90
52849;DHT22;38714;53.180;5.812;2023-10-09T05:37:04;15.70;99.90
52849;DHT22;38714;53.180;5.812;2023-10-09T05:39:49;15.70;99.90
52849;DHT22;38714;53.180;5.812;2023-10-09T05:42:44;15.70;99.90
52849;DHT22;38714;53.180;5.812;2023-10-09T05:45:17;15.70;99.90
52849;DHT22;38714;53.180;5.812;2023-10-09T05:47:53;15.70;99.90
52849;DHT22;38714;53.180;5.812;2023-10-09T05:50:26;15.70;99.90
52849;DHT22;38714;53.180;5.812;2023-10-09T05:52:53;15.70;99.90
52849;DHT22;38714;53.180;5.812;2023-10-09T05:55:20;15.70;99.90
52849;DHT22;38714;53.180;5.812;2023-10-09T05:58:05;15.70;99.90
52849;DHT22;38714;53.180;5.812;2023-10-09T06:00:50;15.70;99.90
52849;DHT22;38714;53.180;5.812;2023-10-09T06:03:35;15.70;99.90
52849;DHT22;38714;53.180;5.812;2023-10-09T06:06:20;15.70;99.90
52849;DHT22;38714;53.180;5.812;2023-10-09T06:09:05;15.70;99.90
52849;DHT22;38714;53.180;5.812;2023-10-09T06:11:49;15.80;99.90
52849;DHT22;38714;53.180;5.812;2023-10-09T06:14:23;15.80;99.90
52849;DHT22;38714;53.180;5.812;2023-10-09T06:16:55;15.70;99.90
52849;DHT22;38714;53.180;5.812;2023-10-09T06:19:27;15.80;99.90
52849;DHT22;38714;53.180;5.812;2023-10-09T06:22:05;15.80;99.90
52849;DHT22;38714;53.180;5.812;2023-10-09T06:24:37;15.80;99.90
52849;DHT22;38714;53.180;5.812;2023-10-09T06:27:19;15.80;99.90
52849;DHT22;38714;53.180;5.812;2023-10-09T06:29:57;15.80;99.90
52849;DHT22;38714;53.180;5.812;2023-10-09T06:32:42;15.80;99.90
52849;DHT22;38714;53.180;5.812;2023-10-09T06:35:24;15.80;99.90
52849;DHT22;38714;53.180;5.812;2023-10-09T06:37:59;15.80;99.90
52849;DHT22;38714;53.180;5.812;2023-10-09T06:40:38;15.80;99.90
52849;DHT22;38714;53.180;5.812;2023-10-09T06:43:23;15.80;99.90
52849;DHT22;38714;53.180;5.812;2023-10-09T06:45:58;15.80;99.90
52849;DHT22;38714;53.180;5.812;2023-10-09T06:48:44;15.80;99.90
52849;DHT22;38714;53.180;5.812;2023-10-09T06:51:22;15.80;99.90
52849;DHT22;38714;53.180;5.812;2023-10-09T06:53:48;15.80;99.90
52849;DHT22;38714;53.180;5.812;2023-10-09T06:58:51;15.80;99.90
52849;DHT22;38714;53.180;5.812;2023-10-09T07:01:30;15.80;99.90
52849;DHT22;38714;53.180;5.812;2023-10-09T07:04:14;15.80;99.90
52849;DHT22;38714;53.180;5.812;2023-10-09T07:06:58;15.80;99.90
52849;DHT22;38714;53.180;5.812;2023-10-09T07:09:24;15.80;99.90
52849;DHT22;38714;53.180;5.812;2023-10-09T07:12:08;15.80;99.90
52849;DHT22;38714;53.180;5.812;2023-10-09T07:14:35;15.80;99.90
52849;DHT22;38714;53.180;5.812;2023-10-09T07:17:02;15.80;99.90
52849;DHT22;38714;53.180;5.812;2023-10-09T07:19:46;15.70;99.90
52849;DHT22;38714;53.180;5.812;2023-10-09T07:22:12;15.80;99.90
52849;DHT22;38714;53.180;5.812;2023-10-09T07:25:01;15.80;99.90
52849;DHT22;38714;53.180;5.812;2023-10-09T07:27:40;15.80;99.90
52849;DHT22;38714;53.180;5.812;2023-10-09T07:30:13;15.80;99.90
52849;DHT22;38714;53.180;5.812;2023-10-09T07:32:59;15.80;99.90
52849;DHT22;38714;53.180;5.812;2023-10-09T07:38:23;15.80;99.90
52849;DHT22;38714;53.180;5.812;2023-10-09T07:40:54;15.80;99.90
52849;DHT22;38714;53.180;5.812;2023-10-09T07:43:38;15.80;99.90
52849;DHT22;38714;53.180;5.812;2023-10-09T07:46:08;15.80;99.90
52849;DHT22;38714;53.180;5.812;2023-10-09T07:48:55;15.90;99.90
52849;DHT22;38714;53.180;5.812;2023-10-09T07:51:21;15.90;99.90
52849;DHT22;38714;53.180;5.812;2023-10-09T07:54:00;15.90;99.90
52849;DHT22;38714;53.180;5.812;2023-10-09T07:56:36;15.90;99.90
52849;DHT22;38714;53.180;5.812;2023-10-09T07:59:12;15.90;99.90
52849;DHT22;38714;53.180;5.812;2023-10-09T08:01:42;15.90;99.90
52849;DHT22;38714;53.180;5.812;2023-10-09T08:04:26;15.90;99.90
52849;DHT22;38714;53.180;5.812;2023-10-09T08:07:08;15.90;99.90
52849;DHT22;38714;53.180;5.812;2023-10-09T08:09:35;15.90;99.90
52849;DHT22;38714;53.180;5.812;2023-10-09T08:12:12;15.90;99.90
52849;DHT22;38714;53.180;5.812;2023-10-09T08:15:06;16.00;99.90
52849;DHT22;38714;53.180;5.812;2023-10-09T08:17:48;16.00;99.90
52849;DHT22;38714;53.180;5.812;2023-10-09T08:20:26;16.00;99.90
52849;DHT22;38714;53.180;5.812;2023-10-09T08:22:53;16.00;99.90
52849;DHT22;38714;53.180;5.812;2023-10-09T08:25:21;16.00;99.90
52849;DHT22;38714;53.180;5.812;2023-10-09T08:27:59;16.00;99.90
52849;DHT22;38714;53.180;5.812;2023-10-09T08:30:45;16.00;99.90
52849;DHT22;38714;53.180;5.812;2023-10-09T08:33:18;16.00;99.90
52849;DHT22;38714;53.180;5.812;2023-10-09T08:35:54;16.00;99.90
52849;DHT22;38714;53.180;5.812;2023-10-09T08:38:40;16.00;99.90
52849;DHT22;38714;53.180;5.812;2023-10-09T08:41:11;16.10;99.90
52849;DHT22;38714;53.180;5.812;2023-10-09T08:43:47;16.10;99.90
52849;DHT22;38714;53.180;5.812;2023-10-09T08:46:18;16.10;99.90
52849;DHT22;38714;53.180;5.812;2023-10-09T08:48:45;16.10;99.90
52849;DHT22;38714;53.180;5.812;2023-10-09T08:51:11;16.10;99.90
52849;DHT22;38714;53.180;5.812;2023-10-09T08:53:39;16.10;99.90
52849;DHT22;38714;53.180;5.812;2023-10-09T08:56:10;16.10;99.90
52849;DHT22;38714;53.180;5.812;2023-10-09T08:58:36;16.10;99.90
52849;DHT22;38714;53.180;5.812;2023-10-09T09:01:06;16.20;99.90
52849;DHT22;38714;53.180;5.812;2023-10-09T09:03:39;16.20;99.90
52849;DHT22;38714;53.180;5.812;2023-10-09T09:06:06;16.20;99.90
52849;DHT22;38714;53.180;5.812;2023-10-09T09:08:33;16.20;99.90
52849;DHT22;38714;53.180;5.812;2023-10-09T09:11:03;16.20;99.90
52849;DHT22;38714;53.180;5.812;2023-10-09T09:13:46;16.20;99.90
52849;DHT22;38714;53.180;5.812;2023-10-09T09:21:27;16.30;99.90
52849;DHT22;38714;53.180;5.812;2023-10-09T09:23:57;16.30;99.90
52849;DHT22;38714;53.180;5.812;2023-10-09T09:26:38;16.30;99.90
52849;DHT22;38714;53.180;5.812;2023-10-09T09:29:10;16.40;99.90
52849;DHT22;38714;53.180;5.812;2023-10-09T09:31:36;16.40;99.90
52849;DHT22;38714;53.180;5.812;2023-10-09T09:34:05;16.40;99.90
52849;DHT22;38714;53.180;5.812;2023-10-09T09:36:53;16.40;99.90
52849;DHT22;38714;53.180;5.812;2023-10-09T09:39:28;16.40;99.90
52849;DHT22;38714;53.180;5.812;2023-10-09T09:41:58;16.40;99.90
52849;DHT22;38714;53.180;5.812;2023-10-09T09:44:33;16.50;99.90
52849;DHT22;38714;53.180;5.812;2023-10-09T09:47:00;16.50;99.90
52849;DHT22;38714;53.180;5.812;2023-10-09T09:49:30;16.50;99.90
52849;DHT22;38714;53.180;5.812;2023-10-09T09:52:00;16.50;99.90
52849;DHT22;38714;53.180;5.812;2023-10-09T09:54:26;16.50;99.90
52849;DHT22;38714;53.180;5.812;2023-10-09T09:56:54;16.60;99.90
52849;DHT22;38714;53.180;5.812;2023-10-09T09:59:25;16.60;99.90
52849;DHT22;38714;53.180;5.812;2023-10-09T10:01:56;16.60;99.90
52849;DHT22;38714;53.180;5.812;2023-10-09T10:04:26;16.60;99.90
52849;DHT22;38714;53.180;5.812;2023-10-09T10:06:54;16.60;99.90
52849;DHT22;38714;53.180;5.812;2023-10-09T10:09:40;16.60;99.90
52849;DHT22;38714;53.180;5.812;2023-10-09T10:12:10;16.60;99.90
52849;DHT22;38714;53.180;5.812;2023-10-09T10:14:56;16.60;99.90
52849;DHT22;38714;53.180;5.812;2023-10-09T10:17:31;16.60;99.90
52849;DHT22;38714;53.180;5.812;2023-10-09T10:22:26;16.60;99.90
52849;DHT22;38714;53.180;5.812;2023-10-09T10:24:56;16.60;99.90
52849;DHT22;38714;53.180;5.812;2023-10-09T10:27:35;16.60;99.90
52849;DHT22;38714;53.180;5.812;2023-10-09T10:32:57;16.70;99.90
52849;DHT22;38714;53.180;5.812;2023-10-09T10:35:36;16.70;99.90
52849;DHT22;38714;53.180;5.812;2023-10-09T10:38:33;16.70;99.90
52849;DHT22;38714;53.180;5.812;2023-10-09T10:41:12;16.80;99.90
52849;DHT22;38714;53.180;5.812;2023-10-09T10:43:40;16.80;99.90
52849;DHT22;38714;53.180;5.812;2023-10-09T10:46:15;16.80;99.90
52849;DHT22;38714;53.180;5.812;2023-10-09T10:48:53;16.90;99.90
52849;DHT22;38714;53.180;5.812;2023-10-09T10:51:26;17.00;99.90
52849;DHT22;38714;53.180;5.812;2023-10-09T10:54:01;17.00;99.90
52849;DHT22;38714;53.180;5.812;2023-10-09T10:56:52;17.00;99.90
52849;DHT22;38714;53.180;5.812;2023-10-09T10:59:19;17.00;99.90
52849;DHT22;38714;53.180;5.812;2023-10-09T11:01:51;17.00;99.90
52849;DHT22;38714;53.180;5.812;2023-10-09T11:04:27;17.00;99.90
52849;DHT22;38714;53.180;5.812;2023-10-09T11:07:05;16.90;99.90
52849;DHT22;38714;53.180;5.812;2023-10-09T11:09:51;16.90;99.90
52849;DHT22;38714;53.180;5.812;2023-10-09T11:15:34;16.90;99.90
52849;DHT22;38714;53.180;5.812;2023-10-09T11:18:10;16.90;99.90
52849;DHT22;38714;53.180;5.812;2023-10-09T11:20:55;16.80;99.90
52849;DHT22;38714;53.180;5.812;2023-10-09T11:23:31;16.80;99.90
52849;DHT22;38714;53.180;5.812;2023-10-09T11:26:00;16.90;99.90
52849;DHT22;38714;53.180;5.812;2023-10-09T11:28:44;16.80;99.90
52849;DHT22;38714;53.180;5.812;2023-10-09T11:31:23;16.90;99.90
52849;DHT22;38714;53.180;5.812;2023-10-09T11:33:49;16.80;99.90
52849;DHT22;38714;53.180;5.812;2023-10-09T11:36:26;16.90;99.90
52849;DHT22;38714;53.180;5.812;2023-10-09T11:39:04;16.80;99.90
52849;DHT22;38714;53.180;5.812;2023-10-09T11:41:40;16.90;99.90
52849;DHT22;38714;53.180;5.812;2023-10-09T11:44:10;16.90;99.90
52849;DHT22;38714;53.180;5.812;2023-10-09T11:47:00;16.90;99.90
52849;DHT22;38714;53.180;5.812;2023-10-09T11:49:54;16.90;99.90
52849;DHT22;38714;53.180;5.812;2023-10-09T11:52:26;16.90;99.90
52849;DHT22;38714;53.180;5.812;2023-10-09T11:55:06;16.90;99.90
52849;DHT22;38714;53.180;5.812;2023-10-09T11:57:42;16.90;99.90
52849;DHT22;38714;53.180;5.812;2023-10-09T12:00:08;17.00;99.90
52849;DHT22;38714;53.180;5.812;2023-10-09T12:02:54;17.00;99.90
52849;DHT22;38714;53.180;5.812;2023-10-09T12:05:19;17.10;99.90
52849;DHT22;38714;53.180;5.812;2023-10-09T12:07:46;17.10;99.90
52849;DHT22;38714;53.180;5.812;2023-10-09T12:10:12;17.10;99.90
52849;DHT22;38714;53.180;5.812;2023-10-09T12:12:49;17.20;99.90
52849;DHT22;38714;53.180;5.812;2023-10-09T12:15:15;17.20;99.90
52849;DHT22;38714;53.180;5.812;2023-10-09T12:17:44;17.20;99.90
52849;DHT22;38714;53.180;5.812;2023-10-09T12:20:18;17.20;99.90
52849;DHT22;38714;53.180;5.812;2023-10-09T12:22:58;17.30;99.90
52849;DHT22;38714;53.180;5.812;2023-10-09T12:25:25;17.30;99.90
52849;DHT22;38714;53.180;5.812;2023-10-09T12:27:51;17.20;99.90
52849;DHT22;38714;53.180;5.812;2023-10-09T12:30:23;17.30;99.90
52849;DHT22;38714;53.180;5.812;2023-10-09T12:32:57;17.20;99.90
52849;DHT22;38714;53.180;5.812;2023-10-09T12:35:26;17.20;99.90
52849;DHT22;38714;53.180;5.812;2023-10-09T12:37:54;17.20;99.90
52849;DHT22;38714;53.180;5.812;2023-10-09T12:40:22;17.20;99.90
52849;DHT22;38714;53.180;5.812;2023-10-09T12:42:55;17.20;99.90
52849;DHT22;38714;53.180;5.812;2023-10-09T12:45:24;17.20;99.90
52849;DHT22;38714;53.180;5.812;2023-10-09T12:47:58;17.10;99.90
52849;DHT22;38714;53.180;5.812;2023-10-09T12:50:34;17.20;99.90
52849;DHT22;38714;53.180;5.812;2023-10-09T12:53:00;17.10;99.90
52849;DHT22;38714;53.180;5.812;2023-10-09T12:55:35;17.10;99.90
52849;DHT22;38714;53.180;5.812;2023-10-09T12:58:02;17.10;99.90
52849;DHT22;38714;53.180;5.812;2023-10-09T13:00:33;17.10;99.90
52849;DHT22;38714;53.180;5.812;2023-10-09T13:02:59;17.20;99.90
52849;DHT22;38714;53.180;5.812;2023-10-09T13:05:39;17.10;99.90
52849;DHT22;38714;53.180;5.812;2023-10-09T13:08:20;17.10;99.90
52849;DHT22;38714;53.180;5.812;2023-10-09T13:10:51;17.10;99.90
52849;DHT22;38714;53.180;5.812;2023-10-09T13:13:25;17.10;99.90
52849;DHT22;38714;53.180;5.812;2023-10-09T13:16:11;17.10;99.90
52849;DHT22;38714;53.180;5.812;2023-10-09T13:18:41;17.10;99.90
52849;DHT22;38714;53.180;5.812;2023-10-09T13:21:16;17.10;99.90
52849;DHT22;38714;53.180;5.812;2023-10-09T13:23:41;17.10;99.90
52849;DHT22;38714;53.180;5.812;2023-10-09T13:26:16;17.10;99.90
52849;DHT22;38714;53.180;5.812;2023-10-09T13:28:49;17.10;99.90
52849;DHT22;38714;53.180;5.812;2023-10-09T13:31:16;17.10;99.90
52849;DHT22;38714;53.180;5.812;2023-10-09T13:33:43;17.10;99.90
52849;DHT22;38714;53.180;5.812;2023-10-09T13:36:13;17.10;99.90
52849;DHT22;38714;53.180;5.812;2023-10-09T13:38:47;17.10;99.90
52849;DHT22;38714;53.180;5.812;2023-10-09T13:41:13;17.10;99.90
52849;DHT22;38714;53.180;5.812;2023-10-09T13:43:43;17.10;99.90
52849;DHT22;38714;53.180;5.812;2023-10-09T13:46:10;17.10;99.90
52849;DHT22;38714;53.180;5.812;2023-10-09T13:48:40;17.10;99.90
52849;DHT22;38714;53.180;5.812;2023-10-09T13:51:07;17.10;99.90
52849;DHT22;38714;53.180;5.812;2023-10-09T13:53:34;17.10;99.90
52849;DHT22;38714;53.180;5.812;2023-10-09T13:56:18;17.10;99.90
52849;DHT22;38714;53.180;5.812;2023-10-09T13:58:48;17.10;99.90
52849;DHT22;38714;53.180;5.812;2023-10-09T14:01:18;17.10;99.90
52849;DHT22;38714;53.180;5.812;2023-10-09T14:03:55;17.10;99.90
52849;DHT22;38714;53.180;5.812;2023-10-09T14:06:21;17.10;99.90
52849;DHT22;38714;53.180;5.812;2023-10-09T14:08:59;17.10;99.90
52849;DHT22;38714;53.180;5.812;2023-10-09T14:11:29;17.10;99.90
52849;DHT22;38714;53.180;5.812;2023-10-09T14:13:55;17.10;99.90
52849;DHT22;38714;53.180;5.812;2023-10-09T14:16:21;17.00;99.90
52849;DHT22;38714;53.180;5.812;2023-10-09T14:18:56;17.10;99.90
52849;DHT22;38714;53.180;5.812;2023-10-09T14:21:27;17.10;99.90
52849;DHT22;38714;53.180;5.812;2023-10-09T14:23:58;17.10;99.90
52849;DHT22;38714;53.180;5.812;2023-10-09T14:26:27;17.00;99.90
52849;DHT22;38714;53.180;5.812;2023-10-09T14:28:56;17.00;99.90
52849;DHT22;38714;53.180;5.812;2023-10-09T14:31:26;17.00;99.90
52849;DHT22;38714;53.180;5.812;2023-10-09T14:33:56;17.00;99.90
52849;DHT22;38714;53.180;5.812;2023-10-09T14:36:22;17.00;99.90
52849;DHT22;38714;53.180;5.812;2023-10-09T14:38:52;17.00;99.90
52849;DHT22;38714;53.180;5.812;2023-10-09T14:41:22;17.00;99.90
52849;DHT22;38714;53.180;5.812;2023-10-09T14:43:53;17.00;99.90
52849;DHT22;38714;53.180;5.812;2023-10-09T14:46:20;16.90;99.90
52849;DHT22;38714;53.180;5.812;2023-10-09T14:48:55;16.90;99.90
52849;DHT22;38714;53.180;5.812;2023-10-09T14:51:21;16.90;99.90
52849;DHT22;38714;53.180;5.812;2023-10-09T14:53:54;16.90;99.90
52849;DHT22;38714;53.180;5.812;2023-10-09T14:56:26;16.90;99.90
52849;DHT22;38714;53.180;5.812;2023-10-09T14:58:58;16.90;99.90
52849;DHT22;38714;53.180;5.812;2023-10-09T15:01:28;16.90;99.90
52849;DHT22;38714;53.180;5.812;2023-10-09T15:03:58;16.90;99.90
52849;DHT22;38714;53.180;5.812;2023-10-09T15:06:26;16.90;99.90
52849;DHT22;38714;53.180;5.812;2023-10-09T15:08:54;16.90;99.90
52849;DHT22;38714;53.180;5.812;2023-10-09T15:11:25;16.90;99.90
52849;DHT22;38714;53.180;5.812;2023-10-09T15:13:52;16.80;99.90
52849;DHT22;38714;53.180;5.812;2023-10-09T15:16:18;16.80;99.90
52849;DHT22;38714;53.180;5.812;2023-10-09T15:18:47;16.90;99.90
52849;DHT22;38714;53.180;5.812;2023-10-09T15:21:18;16.80;99.90
52849;DHT22;38714;53.180;5.812;2023-10-09T15:23:46;16.80;99.90
52849;DHT22;38714;53.180;5.812;2023-10-09T15:26:11;16.80;99.90
52849;DHT22;38714;53.180;5.812;2023-10-09T15:28:41;16.90;99.90
52849;DHT22;38714;53.180;5.812;2023-10-09T15:31:09;16.80;99.90
52849;DHT22;38714;53.180;5.812;2023-10-09T15:33:41;16.80;99.90
52849;DHT22;38714;53.180;5.812;2023-10-09T15:36:12;16.80;99.90
52849;DHT22;38714;53.180;5.812;2023-10-09T15:38:39;16.80;99.90
52849;DHT22;38714;53.180;5.812;2023-10-09T15:41:04;16.70;99.90
52849;DHT22;38714;53.180;5.812;2023-10-09T15:43:32;16.70;99.90
52849;DHT22;38714;53.180;5.812;2023-10-09T15:45:59;16.70;99.90
52849;DHT22;38714;53.180;5.812;2023-10-09T15:48:25;16.70;99.90
52849;DHT22;38714;53.180;5.812;2023-10-09T15:50:50;16.70;99.90
52849;DHT22;38714;53.180;5.812;2023-10-09T15:53:17;16.60;99.90
52849;DHT22;38714;53.180;5.812;2023-10-09T15:55:46;16.60;99.90
52849;DHT22;38714;53.180;5.812;2023-10-09T15:58:16;16.60;99.90
52849;DHT22;38714;53.180;5.812;2023-10-09T16:00:44;16.60;99.90
52849;DHT22;38714;53.180;5.812;2023-10-09T16:03:09;16.50;99.90
52849;DHT22;38714;53.180;5.812;2023-10-09T16:05:36;16.50;99.90
52849;DHT22;38714;53.180;5.812;2023-10-09T16:08:02;16.50;99.90
52849;DHT22;38714;53.180;5.812;2023-10-09T16:10:29;16.50;99.90
52849;DHT22;38714;53.180;5.812;2023-10-09T16:12:56;16.50;99.90
52849;DHT22;38714;53.180;5.812;2023-10-09T16:15:24;16.50;99.90
52849;DHT22;38714;53.180;5.812;2023-10-09T16:17:52;16.50;99.90
52849;DHT22;38714;53.180;5.812;2023-10-09T16:20:26;16.50;99.90
52849;DHT22;38714;53.180;5.812;2023-10-09T16:22:52;16.50;99.90
52849;DHT22;38714;53.180;5.812;2023-10-09T16:25:18;16.40;99.90
52849;DHT22;38714;53.180;5.812;2023-10-09T16:27:49;16.40;99.90
52849;DHT22;38714;53.180;5.812;2023-10-09T16:30:19;16.40;99.90
52849;DHT22;38714;53.180;5.812;2023-10-09T16:32:47;16.40;99.90